createdAt,value
2022-10-12T00:01:34.300Z,8.80
2022-10-12T00:04:02.309Z,8.07
2022-10-12T00:06:30.299Z,8.13
2022-10-12T00:09:00.322Z,9.13
2022-10-12T00:11:30.299Z,8.02
2022-10-12T00:13:59.596Z,7.53
2022-10-12T00:16:32.331Z,8.05
2022-10-12T00:19:01.045Z,8.13
2022-10-12T00:21:30.689Z,7.72
2022-10-12T00:24:02.234Z,8.40
2022-10-12T00:26:31.154Z,7.60
2022-10-12T00:29:01.527Z,8.05
2022-10-12T00:31:33.275Z,7.60
2022-10-12T00:34:03.301Z,8.32
2022-10-12T00:36:36.227Z,8.63
2022-10-12T00:39:09.205Z,8.07
2022-10-12T00:41:45.098Z,8.43
2022-10-12T00:44:36.253Z,8.43
2022-10-12T00:47:10.798Z,8.02
2022-10-12T00:49:39.100Z,7.63
2022-10-12T00:52:14.024Z,8.25
2022-10-12T00:54:47.792Z,8.65
2022-10-12T00:57:19.125Z,9.27
2022-10-12T01:00:03.956Z,9.02
2022-10-12T01:02:35.225Z,8.15
2022-10-12T01:05:05.305Z,8.77
2022-10-12T01:07:33.622Z,7.97
2022-10-12T01:10:01.614Z,8.13
2022-10-12T01:12:34.109Z,7.70
2022-10-12T01:15:03.325Z,7.80
2022-10-12T01:17:53.164Z,8.40
2022-10-12T01:20:27.100Z,9.13
2022-10-12T01:23:18.150Z,9.00
2022-10-12T01:26:08.179Z,9.15
2022-10-12T01:28:51.127Z,9.70
2022-10-12T01:31:39.804Z,12.70
2022-10-12T01:34:15.102Z,12.18
2022-10-12T01:36:55.073Z,12.25
2022-10-12T01:39:27.926Z,9.85
2022-10-12T01:42:00.982Z,9.43
2022-10-12T01:44:30.818Z,9.45
2022-10-12T01:46:59.109Z,8.95
2022-10-12T01:49:31.712Z,10.10
2022-10-12T01:52:26.857Z,10.00
2022-10-12T01:55:19.570Z,9.40
2022-10-12T01:58:17.222Z,11.98
2022-10-12T02:00:58.961Z,10.90
2022-10-12T02:03:57.324Z,10.82
2022-10-12T02:06:34.906Z,11.48
2022-10-12T02:09:27.495Z,10.98
2022-10-12T02:12:00.457Z,10.70
2022-10-12T02:14:33.970Z,10.43
2022-10-12T02:17:05.506Z,12.18
2022-10-12T02:19:41.017Z,12.43
2022-10-12T02:22:36.553Z,10.88
2022-10-12T02:25:10.857Z,9.57
2022-10-12T02:27:44.412Z,8.65
2022-10-12T02:30:13.206Z,8.95
2022-10-12T02:32:46.917Z,8.55
2022-10-12T02:35:32.508Z,8.38
2022-10-12T02:38:11.716Z,7.90
2022-10-12T02:40:52.970Z,8.90
2022-10-12T02:43:24.436Z,7.63
2022-10-12T02:45:56.588Z,7.45
2022-10-12T02:48:26.676Z,7.75
2022-10-12T02:50:59.148Z,8.00
2022-10-12T02:53:29.289Z,7.80
2022-10-12T02:56:11.718Z,8.32
2022-10-12T02:58:41.699Z,7.53
2022-10-12T03:01:09.724Z,6.82
2022-10-12T03:03:56.007Z,6.85
2022-10-12T03:06:24.744Z,6.72
2022-10-12T03:08:52.711Z,6.30
2022-10-12T03:11:21.525Z,6.07
2022-10-12T03:14:04.649Z,6.03
2022-10-12T03:16:32.734Z,6.18
2022-10-12T03:19:00.786Z,6.25
2022-10-12T03:21:28.707Z,6.07
2022-10-12T03:23:56.961Z,5.47
2022-10-12T03:26:24.948Z,6.00
2022-10-12T03:28:52.944Z,5.65
2022-10-12T03:31:23.247Z,5.45
2022-10-12T03:33:51.262Z,6.20
2022-10-12T03:36:19.454Z,5.50
2022-10-12T03:38:47.488Z,5.60
2022-10-12T03:41:15.468Z,5.07
2022-10-12T03:43:43.376Z,5.53
2022-10-12T03:46:12.390Z,5.22
2022-10-12T03:48:40.335Z,5.60
2022-10-12T03:51:08.360Z,5.00
2022-10-12T03:53:36.566Z,5.38
2022-10-12T03:56:05.000Z,5.38
2022-10-12T03:58:33.271Z,5.07
2022-10-12T04:01:03.194Z,5.07
2022-10-12T04:03:31.184Z,4.65
2022-10-12T04:05:59.824Z,5.18
2022-10-12T04:08:30.831Z,4.43
2022-10-12T04:10:58.983Z,4.95
2022-10-12T04:13:26.948Z,4.50
2022-10-12T04:15:55.080Z,4.70
2022-10-12T04:18:23.087Z,4.30
2022-10-12T04:20:51.265Z,5.05
2022-10-12T04:23:19.512Z,4.53
2022-10-12T04:25:47.886Z,5.13
2022-10-12T04:28:15.906Z,4.57
2022-10-12T04:30:44.051Z,5.00
2022-10-12T04:33:11.967Z,4.35
2022-10-12T04:35:40.003Z,4.22
2022-10-12T04:38:08.029Z,4.38
2022-10-12T04:40:36.018Z,4.57
2022-10-12T04:43:04.061Z,4.30
2022-10-12T04:45:32.298Z,4.40
2022-10-12T04:48:00.244Z,3.92
2022-10-12T04:50:30.187Z,3.80
2022-10-12T04:52:58.544Z,4.10
2022-10-12T04:55:27.666Z,4.65
2022-10-12T04:57:55.627Z,4.25
2022-10-12T05:00:39.010Z,4.30
2022-10-12T05:03:07.062Z,4.35
2022-10-12T05:05:36.761Z,4.20
2022-10-12T05:08:06.021Z,4.13
2022-10-12T05:10:34.687Z,4.18
2022-10-12T05:13:02.613Z,3.90
2022-10-12T05:15:32.231Z,4.47
2022-10-12T05:18:00.334Z,3.40
2022-10-12T05:20:28.402Z,3.28
2022-10-12T05:22:58.756Z,4.15
2022-10-12T05:25:26.816Z,3.88
2022-10-12T05:27:54.852Z,4.95
2022-10-12T05:30:23.709Z,4.53
2022-10-12T05:32:51.681Z,4.07
2022-10-12T05:35:19.651Z,4.18
2022-10-12T05:37:49.297Z,3.95
2022-10-12T05:40:17.371Z,4.13
2022-10-12T05:42:46.151Z,4.45
2022-10-12T05:45:17.771Z,4.00
2022-10-12T05:47:45.906Z,3.50
2022-10-12T05:50:13.894Z,4.22
2022-10-12T05:52:44.345Z,4.03
2022-10-12T05:55:12.358Z,4.10
2022-10-12T05:57:40.516Z,4.32
2022-10-12T06:00:09.845Z,5.05
2022-10-12T06:02:38.473Z,4.25
2022-10-12T06:05:06.987Z,4.15
2022-10-12T06:07:37.081Z,4.25
2022-10-12T06:10:05.493Z,3.95
2022-10-12T06:12:33.773Z,4.25
2022-10-12T06:15:02.016Z,4.25
2022-10-12T06:17:32.682Z,3.50
2022-10-12T06:20:00.614Z,3.60
2022-10-12T06:22:28.828Z,4.00
2022-10-12T06:24:56.958Z,3.97
2022-10-12T06:27:25.825Z,3.75
2022-10-12T06:29:54.116Z,4.07
2022-10-12T06:32:22.114Z,4.30
2022-10-12T06:34:50.066Z,3.28
2022-10-12T06:37:44.557Z,3.30
2022-10-12T06:40:06.730Z,3.17
2022-10-12T06:42:34.873Z,3.85
2022-10-12T06:45:02.986Z,3.85
2022-10-12T06:47:31.922Z,4.00
2022-10-12T06:50:01.736Z,3.75
2022-10-12T06:52:32.412Z,3.30
2022-10-12T06:55:00.390Z,3.80
2022-10-12T06:57:30.305Z,3.20
2022-10-12T07:02:45.712Z,3.30
2022-10-12T07:05:14.691Z,5.97
2022-10-12T07:07:43.109Z,8.75
2022-10-12T07:10:11.311Z,7.95
2022-10-12T07:12:40.488Z,5.47
2022-10-12T07:15:09.703Z,6.20
2022-10-12T07:17:38.032Z,5.05
2022-10-12T07:20:08.408Z,4.50
2022-10-12T07:22:36.602Z,3.78
2022-10-12T07:25:05.711Z,3.28
2022-10-12T07:27:33.627Z,3.78
2022-10-12T07:30:01.677Z,3.50
2022-10-12T07:32:32.130Z,3.95
2022-10-12T07:35:00.038Z,3.65
2022-10-12T07:37:27.950Z,3.40
2022-10-12T07:39:59.671Z,3.45
2022-10-12T07:42:27.715Z,5.30
2022-10-12T07:44:55.657Z,5.75
2022-10-12T07:47:26.229Z,5.43
2022-10-12T07:49:54.177Z,4.03
2022-10-12T07:52:22.198Z,4.40
2022-10-12T07:54:50.295Z,3.95
2022-10-12T07:57:18.257Z,3.55
2022-10-12T07:59:46.125Z,3.45
2022-10-12T08:02:15.253Z,3.15
2022-10-12T08:04:43.326Z,3.10
2022-10-12T08:07:12.655Z,2.85
2022-10-12T08:09:58.737Z,3.20
2022-10-12T08:12:26.834Z,3.58
2022-10-12T08:14:54.831Z,4.00
2022-10-12T08:17:23.910Z,3.20
2022-10-12T08:19:51.872Z,4.05
2022-10-12T08:22:19.953Z,3.97
2022-10-12T08:24:49.034Z,3.13
2022-10-12T08:27:17.019Z,3.00
2022-10-12T08:29:44.977Z,2.17
2022-10-12T08:32:14.169Z,2.10
2022-10-12T08:34:42.137Z,2.17
2022-10-12T08:37:10.068Z,2.40
2022-10-12T08:39:38.284Z,2.17
2022-10-12T08:42:35.054Z,2.13
2022-10-12T08:45:30.605Z,1.70
2022-10-12T08:48:15.193Z,2.00
2022-10-12T08:51:01.199Z,2.33
2022-10-12T08:53:38.326Z,2.13
2022-10-12T08:56:06.819Z,2.25
2022-10-12T08:58:40.212Z,2.40
2022-10-12T09:01:31.084Z,2.40
2022-10-12T09:04:27.320Z,2.33
2022-10-12T09:07:21.688Z,2.17
2022-10-12T09:09:56.643Z,2.20
2022-10-12T09:12:38.963Z,2.50
2022-10-12T09:15:18.257Z,2.58
2022-10-12T09:17:53.145Z,2.67
2022-10-12T09:20:22.948Z,2.78
2022-10-12T09:25:25.209Z,2.05
2022-10-12T09:27:54.167Z,1.60
2022-10-12T09:30:22.518Z,1.77
2022-10-12T09:33:03.054Z,1.50
2022-10-12T09:35:31.374Z,1.20
2022-10-12T09:37:59.377Z,1.50
2022-10-12T09:40:50.581Z,1.42
2022-10-12T09:43:19.065Z,1.60
2022-10-12T09:45:50.204Z,1.50
2022-10-12T09:48:25.080Z,1.50
2022-10-12T09:51:00.644Z,1.45
2022-10-12T09:53:33.607Z,1.50
2022-10-12T09:56:32.085Z,1.40
2022-10-12T09:59:04.729Z,1.40
2022-10-12T10:01:50.262Z,1.58
2022-10-12T10:04:24.727Z,1.40
2022-10-12T10:06:54.435Z,1.35
2022-10-12T10:09:30.301Z,1.27
2022-10-12T10:12:13.294Z,1.73
2022-10-12T10:14:44.976Z,1.88
2022-10-12T10:17:27.378Z,1.63
2022-10-12T10:19:57.741Z,1.40
2022-10-12T10:22:26.271Z,1.40
2022-10-12T10:25:00.435Z,1.58
2022-10-12T10:27:39.011Z,2.22
2022-10-12T10:30:28.664Z,2.67
2022-10-12T10:33:17.558Z,1.90
2022-10-12T10:36:21.208Z,1.65
2022-10-12T10:39:06.658Z,1.92
2022-10-12T10:41:39.418Z,1.70
2022-10-12T10:44:24.712Z,2.10
2022-10-12T10:46:56.333Z,1.98
2022-10-12T10:49:36.526Z,2.10
2022-10-12T10:52:07.276Z,1.70
2022-10-12T10:54:41.596Z,1.63
2022-10-12T10:57:22.317Z,2.13
2022-10-12T11:00:36.897Z,2.40
2022-10-12T11:02:59.402Z,2.72
2022-10-12T11:05:33.192Z,2.38
2022-10-12T11:08:15.193Z,2.70
2022-10-12T11:10:50.980Z,3.08
2022-10-12T11:13:25.021Z,3.15
2022-10-12T11:16:08.443Z,2.80
2022-10-12T11:18:59.231Z,3.28
2022-10-12T11:21:52.251Z,2.95
2022-10-12T11:24:49.985Z,3.00
2022-10-12T11:27:32.253Z,3.08
2022-10-12T11:30:09.160Z,3.00
2022-10-12T11:32:46.063Z,3.20
2022-10-12T11:35:40.225Z,2.90
2022-10-12T11:38:31.186Z,2.58
2022-10-12T11:41:34.536Z,2.42
2022-10-12T11:44:08.439Z,2.55
2022-10-12T11:46:49.307Z,3.35
2022-10-12T11:49:58.578Z,4.30
2022-10-12T11:52:37.077Z,3.70
2022-10-12T11:55:39.310Z,6.10
2022-10-12T11:58:31.596Z,2.80
2022-10-12T12:01:31.327Z,2.70
2022-10-12T12:04:42.529Z,2.72
2022-10-12T12:07:48.721Z,2.75
2022-10-12T12:10:29.484Z,2.65
2022-10-12T12:13:27.703Z,2.75
2022-10-12T12:15:58.554Z,3.00
2022-10-12T12:18:34.050Z,2.80
2022-10-12T12:21:08.363Z,3.35
2022-10-12T12:23:55.089Z,4.07
2022-10-12T12:26:29.851Z,4.93
2022-10-12T12:29:17.514Z,5.10
2022-10-12T12:32:02.069Z,4.63
2022-10-12T12:34:30.277Z,5.22
2022-10-12T12:36:59.256Z,4.70
2022-10-12T12:39:36.136Z,5.43
2022-10-12T12:42:10.285Z,4.85
2022-10-12T12:44:51.346Z,5.90
2022-10-12T12:47:45.717Z,5.85
2022-10-12T12:50:48.029Z,6.13
2022-10-12T12:53:22.994Z,6.15
2022-10-12T12:56:06.359Z,4.97
2022-10-12T12:58:36.928Z,4.75
2022-10-12T13:01:35.239Z,4.97
2022-10-12T13:04:28.776Z,5.13
2022-10-12T13:07:48.226Z,4.35
2022-10-12T13:10:41.342Z,4.38
2022-10-12T13:13:49.330Z,5.38
2022-10-12T13:17:31.351Z,5.13
2022-10-12T13:19:46.511Z,6.05
2022-10-12T13:22:27.977Z,5.90
2022-10-12T13:25:03.789Z,8.60
2022-10-12T13:28:17.462Z,6.80
2022-10-12T13:30:59.882Z,6.72
2022-10-12T13:33:36.054Z,5.47
2022-10-12T13:36:19.214Z,5.95
2022-10-12T13:38:47.222Z,4.30
2022-10-12T13:41:19.753Z,5.20
2022-10-12T13:44:00.235Z,6.25
2022-10-12T13:46:48.041Z,7.53
2022-10-12T13:49:27.816Z,13.02
2022-10-12T13:52:14.564Z,15.23
2022-10-12T13:54:50.032Z,9.32
2022-10-12T13:57:34.728Z,9.10
2022-10-12T14:00:14.835Z,15.18
2022-10-12T14:02:53.882Z,14.80
2022-10-12T14:05:24.921Z,18.27
2022-10-12T14:07:55.949Z,13.93
2022-10-12T14:10:40.227Z,13.70
2022-10-12T14:13:13.707Z,13.45
2022-10-12T14:15:42.275Z,25.63
2022-10-12T14:18:36.428Z,23.27
2022-10-12T14:21:14.825Z,29.05
2022-10-12T14:23:50.086Z,26.77
2022-10-12T14:26:33.962Z,23.25
2022-10-12T14:29:29.235Z,19.75
2022-10-12T14:31:59.595Z,18.63
2022-10-12T14:34:27.511Z,22.55
2022-10-12T14:37:27.795Z,17.33
2022-10-12T14:40:01.013Z,19.02
2022-10-12T14:42:35.499Z,15.38
2022-10-12T14:45:06.864Z,16.20
2022-10-12T14:52:56.993Z,12.25
2022-10-12T14:55:31.349Z,14.32
2022-10-12T14:58:00.422Z,13.15
2022-10-12T15:00:34.675Z,12.38
2022-10-12T15:03:04.365Z,12.00
2022-10-12T15:08:15.088Z,11.18
2022-10-12T15:10:43.487Z,11.15
2022-10-12T15:13:14.868Z,12.07
2022-10-12T15:15:47.270Z,12.02
2022-10-12T15:18:15.546Z,10.60
2022-10-12T15:20:49.040Z,12.75
2022-10-12T15:23:17.896Z,10.57
2022-10-12T15:25:56.961Z,12.68
2022-10-12T15:28:25.913Z,12.25
2022-10-12T15:33:43.351Z,11.43
2022-10-12T15:36:11.644Z,11.02
2022-10-12T15:38:39.920Z,11.73
2022-10-12T15:41:19.477Z,12.30
2022-10-12T15:43:47.545Z,13.77
2022-10-12T15:46:15.506Z,13.80
2022-10-12T15:48:44.740Z,12.90
2022-10-12T15:51:24.635Z,14.07
2022-10-12T15:56:21.951Z,8.32
2022-10-12T16:01:36.901Z,10.43
2022-10-12T16:04:06.746Z,12.07
2022-10-12T16:06:34.983Z,10.18
2022-10-12T16:09:03.119Z,10.45
2022-10-12T16:11:31.107Z,11.50
2022-10-12T16:13:59.036Z,13.80
2022-10-12T16:16:27.380Z,15.68
2022-10-12T16:18:55.349Z,12.82
2022-10-12T16:21:23.294Z,12.40
2022-10-12T16:23:53.101Z,3.45
2022-10-12T16:26:21.108Z,12.18
2022-10-12T16:28:49.163Z,10.70
2022-10-12T16:31:18.929Z,9.25
2022-10-12T16:33:47.005Z,9.93
2022-10-12T16:36:17.392Z,9.10
2022-10-12T16:38:45.862Z,10.55
2022-10-12T16:41:16.635Z,11.25
2022-10-12T16:43:45.460Z,11.43
2022-10-12T16:46:15.341Z,14.57
2022-10-12T16:48:44.540Z,15.00
2022-10-12T16:51:15.291Z,13.77
2022-10-12T16:53:44.390Z,15.15
2022-10-12T16:56:12.535Z,14.07
2022-10-12T16:58:40.642Z,14.45
2022-10-12T17:01:13.001Z,14.32
2022-10-12T17:03:41.192Z,12.48
2022-10-12T17:06:10.265Z,12.52
2022-10-12T17:08:41.013Z,12.30
2022-10-12T17:11:17.230Z,11.02
2022-10-12T17:13:48.988Z,12.10
2022-10-12T17:16:37.807Z,12.27
2022-10-12T17:19:06.115Z,11.52
2022-10-12T17:21:35.596Z,11.43
2022-10-12T17:24:03.643Z,11.20
2022-10-12T17:26:31.961Z,14.75
2022-10-12T17:29:00.073Z,17.20
2022-10-12T17:31:29.374Z,16.77
2022-10-12T17:33:58.673Z,16.10
2022-10-12T17:36:28.427Z,15.25
2022-10-12T17:38:58.749Z,15.32
2022-10-12T17:41:30.307Z,13.68
2022-10-12T17:43:59.145Z,12.43
2022-10-12T17:46:45.875Z,14.63
2022-10-12T17:49:15.794Z,12.63
2022-10-12T17:51:47.916Z,11.80
2022-10-12T17:54:19.201Z,13.55
2022-10-12T17:56:49.222Z,10.55
2022-10-12T17:59:19.480Z,13.25
2022-10-12T18:01:49.861Z,16.77
2022-10-12T18:04:17.849Z,20.45
2022-10-12T18:06:46.368Z,27.65
2022-10-12T18:09:15.557Z,28.13
2022-10-12T18:11:45.037Z,17.45
2022-10-12T18:14:13.894Z,15.63
2022-10-12T18:16:44.296Z,17.57
2022-10-12T18:19:12.702Z,13.30
2022-10-12T18:21:41.278Z,13.93
2022-10-12T18:24:16.682Z,11.80
2022-10-12T18:26:46.875Z,11.98
2022-10-12T18:29:15.387Z,12.02
2022-10-12T18:31:45.115Z,13.30
2022-10-12T18:36:43.314Z,15.05
2022-10-12T18:39:11.529Z,8.77
2022-10-12T18:41:39.486Z,6.05
2022-10-12T18:44:07.927Z,4.05
2022-10-12T18:46:38.842Z,6.28
2022-10-12T18:49:10.163Z,12.90
2022-10-12T18:51:41.384Z,9.60
2022-10-12T18:54:13.492Z,7.95
2022-10-12T18:56:42.336Z,4.10
2022-10-12T18:59:13.123Z,1.63
2022-10-12T19:01:42.260Z,1.80
2022-10-12T19:04:10.286Z,1.38
2022-10-12T19:06:42.669Z,1.33
2022-10-12T19:09:15.231Z,1.05
2022-10-12T19:11:43.490Z,1.15
2022-10-12T19:14:14.796Z,0.93
2022-10-12T19:16:45.529Z,1.10
2022-10-12T19:19:20.939Z,1.10
2022-10-12T19:21:53.281Z,1.30
2022-10-12T19:24:22.514Z,1.33
2022-10-12T19:26:50.650Z,1.67
2022-10-12T19:29:21.127Z,1.23
2022-10-12T19:31:50.661Z,1.10
2022-10-12T19:34:21.710Z,1.08
2022-10-12T19:36:50.156Z,1.00
2022-10-12T19:39:24.227Z,1.13
2022-10-12T19:41:54.833Z,1.83
2022-10-12T19:44:22.967Z,1.88
2022-10-12T19:46:54.219Z,1.60
2022-10-12T19:49:22.202Z,1.00
2022-10-12T19:51:50.254Z,1.10
2022-10-12T19:54:18.386Z,0.90
2022-10-12T19:56:46.794Z,1.20
2022-10-12T19:59:14.843Z,0.85
2022-10-12T20:01:49.262Z,1.00
2022-10-12T20:04:18.163Z,1.10
2022-10-12T20:06:47.357Z,0.88
2022-10-12T20:09:15.419Z,1.00
2022-10-12T20:11:44.406Z,1.05
2022-10-12T20:14:12.758Z,1.05
2022-10-12T20:16:40.738Z,1.00
2022-10-12T20:19:08.865Z,0.80
2022-10-12T20:21:40.801Z,0.90
2022-10-12T20:24:10.505Z,0.90
2022-10-12T20:29:06.572Z,1.13
2022-10-12T20:31:34.702Z,0.93
2022-10-12T20:34:02.666Z,1.08
2022-10-12T20:36:32.429Z,0.70
2022-10-12T20:41:29.518Z,0.82
2022-10-12T20:43:59.543Z,1.00
2022-10-12T20:46:29.357Z,1.02
2022-10-12T20:51:37.109Z,0.80
2022-10-12T20:54:07.409Z,0.80
2022-10-12T20:56:36.276Z,0.90
2022-10-12T20:59:04.347Z,0.85
2022-10-12T21:01:32.555Z,0.73
2022-10-12T21:04:00.605Z,0.70
2022-10-12T21:06:29.781Z,0.88
2022-10-12T21:09:01.849Z,0.73
2022-10-12T21:11:29.919Z,0.82
2022-10-12T21:13:58.275Z,0.82
2022-10-12T21:16:29.220Z,0.90
2022-10-12T21:18:57.588Z,0.80
2022-10-12T21:21:25.828Z,0.70
2022-10-12T21:24:00.002Z,0.70
2022-10-12T21:26:31.345Z,0.68
2022-10-12T21:29:00.867Z,0.63
2022-10-12T21:31:32.650Z,1.00
2022-10-12T21:34:07.158Z,0.75
2022-10-12T21:36:38.166Z,0.88
2022-10-12T21:39:13.381Z,0.93
2022-10-12T21:41:41.559Z,0.68
2022-10-12T21:44:12.503Z,1.55
2022-10-12T21:46:40.862Z,0.82
2022-10-12T21:49:08.999Z,0.82
2022-10-12T21:51:38.791Z,1.00
2022-10-12T21:54:08.062Z,0.82
2022-10-12T21:56:37.577Z,1.00
2022-10-12T21:59:06.906Z,1.00
2022-10-12T22:01:37.989Z,0.70
2022-10-12T22:04:13.515Z,0.77
2022-10-12T22:06:42.962Z,0.80
2022-10-12T22:09:17.209Z,0.90
2022-10-12T22:11:45.442Z,0.85
2022-10-12T22:14:16.732Z,0.70
2022-10-12T22:16:45.508Z,0.80
2022-10-12T22:19:18.343Z,0.87
2022-10-12T22:21:51.758Z,0.90
2022-10-12T22:24:20.889Z,0.88
2022-10-12T22:26:49.273Z,0.90
2022-10-12T22:29:17.270Z,0.98
2022-10-12T22:31:46.337Z,0.90
2022-10-12T22:34:15.476Z,1.00
2022-10-12T22:36:44.688Z,1.10
2022-10-12T22:39:12.652Z,1.00
2022-10-12T22:41:40.830Z,1.00
2022-10-12T22:44:08.976Z,0.98
2022-10-12T22:46:36.926Z,0.70
2022-10-12T22:49:05.775Z,1.13
2022-10-12T22:51:36.796Z,0.80
2022-10-12T22:54:04.993Z,1.00
2022-10-12T22:59:07.155Z,0.80
2022-10-12T23:01:36.725Z,1.00
2022-10-12T23:04:06.211Z,2.28
2022-10-12T23:06:34.279Z,1.00
2022-10-12T23:09:02.849Z,1.00
2022-10-12T23:11:31.543Z,0.70
2022-10-12T23:14:00.105Z,0.90
2022-10-12T23:16:31.139Z,0.80
2022-10-12T23:19:04.076Z,0.93
2022-10-12T23:21:33.869Z,0.98
2022-10-12T23:24:05.380Z,0.77
2022-10-12T23:26:36.257Z,0.82
2022-10-12T23:29:04.731Z,0.90
2022-10-12T23:31:32.954Z,0.80
2022-10-12T23:34:06.985Z,0.90
2022-10-12T23:36:35.743Z,0.80
2022-10-12T23:39:06.039Z,0.80
2022-10-12T23:41:36.760Z,0.90
2022-10-12T23:44:04.999Z,0.85
2022-10-12T23:46:33.000Z,0.90
2022-10-12T23:49:01.294Z,0.82
2022-10-12T23:51:29.400Z,0.82
2022-10-12T23:53:57.489Z,0.90
2022-10-12T23:56:25.992Z,0.90
2022-10-12T23:58:54.969Z,0.98
